Latest Weather Observations for Julia Creek

IDQ60801

Issued at 8:02 am EST Monday 5 December 2016 (issued every 30 minutes, with the page automatically refreshed every 10 minutes)

About weather observations | Map of weather stations | Latest weather observations for QLD | Other Formats
Station Details ID: 029058 Name: JULIA CREEK AIRPORT Lat: -20.67 Lon: 141.72 Height: 122.5 m
Data from the previous 72 hours. | See also: Recent months at Julia Creek
Date/Time
EST
Temp
°C
App
Temp
°C
Dew
Point
°C
Rel
Hum
%
Delta-T
°C
Wind Press
QNH
hPa
Press
MSL
hPa
Rain since
9am
mm
Dir  Spd
km/h
Gust
km/h
Spd
kts
Gust
kts
05/08:00am 33.5 28.9 9.5 23 13.7 N 24 33 13 18 1013.3 1012.4 0.0
05/07:30am 32.1 29.2 9.6 25 12.8 N 15 22 8 12 1013.2 1012.3 0.0
05/07:00am 29.1 27.1 10.3 31 10.7 N 11 15 6 8 1013.0 1012.1 0.0
05/06:30am 26.8 25.0 9.6 34 9.6 NNE 9 15 5 8 1012.4 1011.5 0.0
05/06:00am 26.1 23.9 9.5 35 9.2 NNE 11 15 6 8 1011.9 1011.0 0.0
05/05:30am 26.5 23.9 9.4 34 9.5 NNE 13 15 7 8 1011.3 1010.4 0.0
05/05:00am 26.0 24.6 9.4 35 9.2 NNE 7 9 4 5 1010.9 1010.0 0.0
05/04:30am 26.1 24.5 8.6 33 9.5 N 7 9 4 5 1010.6 1009.7 0.0
05/04:00am 26.6 24.1 8.1 31 10.0 N 11 13 6 7 1010.4 1009.5 0.0
05/03:30am 27.2 25.8 9.5 33 9.8 N 7 9 4 5 1009.9 1009.0 0.0
05/03:00am 27.0 25.3 8.4 31 10.2 N 7 11 4 6 1009.6 1008.7 0.0
05/02:30am 27.5 25.4 8.4 30 10.4 N 9 13 5 7 1009.5 1008.6 0.0
05/02:00am 26.4 24.2 7.9 31 10.0 NNE 9 9 5 5 1009.4 1008.4 0.0
05/01:30am 26.9 25.1 7.9 30 10.3 NNE 7 9 4 5 1009.4 1008.4 0.0
05/01:00am 27.3 25.7 8.2 30 10.4 NNE 6 7 3 4 1009.4 1008.4 0.0
05/12:30am 27.1 25.6 9.0 32 10.0 NNE 7 9 4 5 1009.6 1008.7 0.0
05/12:00am 27.4 25.8 7.8 29 10.6 NNE 6 7 3 4 1009.8 1008.9 0.0
 
Date/Time
EST
Temp
°C
App
Temp
°C
Dew
Point
°C
Rel
Hum
%
Delta-T
°C
Wind Press
QNH
hPa
Press
MSL
hPa
Rain since
9am
mm
Dir  Spd
km/h
Gust
km/h
Spd
kts
Gust
kts
04/11:30pm 28.3 26.4 7.5 27 11.2 NE 7 9 4 5 1009.9 1009.0 0.0
04/11:00pm 29.2 28.1 5.3 22 12.5 CALM 0 0 0 0 1009.9 1009.0 0.0
04/10:30pm 29.5 28.5 5.6 22 12.6 CALM 0 0 0 0 1009.8 1008.9 0.0
04/10:00pm 29.6 26.9 5.6 22 12.7 NNW 9 13 5 7 1009.6 1008.7 0.0
04/09:30pm 29.0 27.6 3.8 20 12.8 CALM 0 0 0 0 1009.1 1008.1 0.0
04/09:00pm 30.1 27.5 3.2 18 13.7 SSW 6 7 3 4 1008.7 1007.7 0.0
04/08:30pm 31.9 29.3 3.0 16 14.8 W 6 6 3 3 1008.4 1007.4 0.0
04/08:00pm 33.5 31.9 2.4 14 15.9 CALM 0 0 0 0 1008.2 1007.2 0.0
04/07:30pm 34.9 32.7 1.3 12 17.0 SSE 2 4 1 2 1007.8 1006.8 0.0
04/07:00pm 38.1 36.3 1.2 10 19.1 CALM 0 0 0 0 1007.6 1006.6 0.0
04/06:30pm 39.9 37.7 1.1 9 20.2 NE 2 7 1 4 1007.4 1006.4 0.0
04/06:00pm 40.7 37.3 1.7 9 20.6 NE 9 15 5 8 1007.6 1006.6 0.0
04/05:30pm 41.2 38.2 2.0 9 20.8 N 7 17 4 9 1007.6 1006.6 0.0
04/05:00pm 41.8 39.1 2.5 9 21.1 ENE 6 13 3 7 1007.7 1006.7 0.0
04/04:30pm 41.4 37.3 2.2 9 20.9 NE 13 24 7 13 1008.1 1007.1 0.0
04/04:00pm 41.5 36.3 2.3 9 21.0 NNE 19 26 10 14 1008.0 1007.0 0.0
04/03:30pm 41.9 36.5 2.6 9 21.1 ENE 20 33 11 18 1008.4 1007.4 0.0
04/03:00pm 41.8 36.6 2.5 9 21.1 NE 19 41 10 22 1008.8 1007.8 0.0
04/02:30pm 42.3 37.2 2.8 9 21.3 N 19 35 10 19 1009.0 1008.0 0.0
04/02:00pm 42.1 39.0 5.6 11 20.5 NNW 11 24 6 13 1009.3 1008.3 0.0
04/01:30pm 40.8 37.9 4.6 11 19.9 NW 9 30 5 16 1009.8 1008.9 0.0
04/01:00pm 40.6 37.2 5.7 12 19.5 N 13 26 7 14 1010.2 1009.3 0.0
04/12:30pm 39.7 35.6 6.1 13 18.8 NNW 17 32 9 17 1010.7 1009.8 0.0
04/12:00pm 40.1 36.0 6.4 13 19.0 NNW 17 33 9 18 1011.1 1010.2 0.0
04/11:30am 39.6 35.3 7.1 14 18.5 NNW 19 32 10 17 1011.7 1010.8 0.0
04/11:00am 38.9 34.2 7.6 15 17.9 NNW 22 33 12 18 1012.1 1011.2 0.0
04/10:30am 38.2 33.2 8.0 16 17.3 N 24 44 13 24 1012.5 1011.6 0.0
04/10:00am 37.7 32.0 8.5 17 16.8 NNW 28 37 15 20 1012.6 1011.7 0.0
04/09:30am 36.3 30.0 7.4 17 16.2 N 30 39 16 21 1012.8 1011.9 0.0
04/09:00am 35.2 28.5 8.1 19 15.3 N 33 44 18 24 1012.9 1012.0 0.0
04/08:30am 34.1 27.2 8.7 21 14.4 N 35 46 19 25 1012.7 1011.8 0.0
04/08:00am 32.9 27.1 10.9 26 12.8 N 32 41 17 22 1012.5 1011.6 0.0
04/07:30am 31.5 26.2 11.3 29 11.8 N 30 39 16 21 1012.6 1011.7 0.0
04/07:00am 29.4 25.9 12.3 34 10.1 N 22 33 12 18 1012.3 1011.4 0.0
04/06:30am 27.7 25.8 12.9 40 8.7 N 15 19 8 10 1012.0 1011.1 0.0
04/06:00am 25.9 24.3 11.6 40 8.2 NNE 11 17 6 9 1011.6 1010.7 0.0
04/05:30am 25.9 24.0 10.5 38 8.6 NNE 11 13 6 7 1011.2 1010.3 0.0
04/05:00am 27.4 24.9 9.7 33 9.9 NNE 13 17 7 9 1010.7 1009.8 0.0
04/04:30am 27.8 25.3 9.6 32 10.2 NNE 13 17 7 9 1010.3 1009.4 0.0
04/04:00am 27.6 25.6 10.3 34 9.8 NNE 11 15 6 8 1009.9 1009.0 0.0
04/03:30am 28.9 26.5 10.1 31 10.6 NNE 13 17 7 9 1009.7 1008.8 0.0
04/03:00am 28.9 27.1 11.0 33 10.3 NNE 11 17 6 9 1009.5 1008.6 0.0
04/02:30am 28.4 27.3 13.1 39 9.1 NNE 11 13 6 7 1009.5 1008.6 0.0
04/02:00am 27.1 27.4 14.5 46 7.6 ENE 6 9 3 5 1009.5 1008.6 0.0
04/01:30am 26.8 26.3 13.9 45 7.7 NE 9 19 5 10 1009.6 1008.7 0.0
04/01:00am 27.5 27.3 14.8 45 7.7 NNE 9 13 5 7 1009.7 1008.8 0.0
04/12:30am 27.1 28.7 14.8 47 7.5 CALM 0 6 0 3 1009.9 1009.0 0.0
04/12:00am 27.5 28.0 11.5 37 9.2 CALM 0 0 0 0 1009.9 1009.0 0.0
 
Date/Time
EST
Temp
°C
App
Temp
°C
Dew
Point
°C
Rel
Hum
%
Delta-T
°C
Wind Press
QNH
hPa
Press
MSL
hPa
Rain since
9am
mm
Dir  Spd
km/h
Gust
km/h
Spd
kts
Gust
kts
03/11:30pm 29.4 28.8 10.5 31 10.8 SSE 4 4 2 2 1009.8 1008.9 0.0
03/11:00pm 29.5 30.4 12.9 36 9.9 CALM 0 0 0 0 1009.9 1009.0 0.0
03/10:30pm 30.2 31.1 13.0 34 10.3 CALM 0 0 0 0 1009.9 1009.0 0.0
03/10:00pm 30.1 30.5 11.1 31 11.0 CALM 0 0 0 0 1009.6 1008.7 0.0
03/09:30pm 29.9 29.0 10.5 30 11.1 SSW 6 6 3 3 1009.2 1008.2 0.0
03/09:00pm 31.3 30.4 10.6 28 12.0 SSW 6 7 3 4 1009.0 1008.0 0.0
03/08:30pm 32.4 31.1 9.2 24 13.2 SSW 6 6 3 3 1008.7 1007.7 0.0
03/08:00pm 34.2 32.8 9.4 22 14.3 S 7 11 4 6 1008.6 1007.6 0.0
03/07:30pm 36.2 34.1 9.7 20 15.4 SE 11 15 6 8 1008.5 1007.5 0.0
03/07:00pm 38.3 38.3 9.8 18 16.8 CALM 0 0 0 0 1008.3 1007.3 0.0
03/06:30pm 39.5 39.3 9.0 16 17.8 CALM 0 6 0 3 1008.2 1007.2 0.0
03/06:00pm 40.1 39.6 9.5 16 18.1 N 2 6 1 3 1008.0 1007.0 0.0
03/05:30pm 40.5 39.1 8.8 15 18.5 N 6 15 3 8 1008.0 1007.0 0.0
03/05:00pm 40.6 39.6 8.9 15 18.6 S 4 9 2 5 1008.0 1007.0 0.0
03/04:30pm 40.8 39.9 9.1 15 18.6 NNW 4 13 2 7 1008.2 1007.2 0.0
03/04:00pm 40.8 39.3 9.1 15 18.7 E 7 17 4 9 1008.3 1007.3 0.0
03/03:30pm 40.4 38.7 9.7 16 18.2 NNE 9 19 5 10 1008.5 1007.5 0.0
03/03:00pm 40.4 38.4 8.8 15 18.5 NW 9 20 5 11 1008.9 1007.9 0.0
03/02:30pm 40.2 38.8 9.6 16 18.1 N 7 17 4 9 1009.3 1008.3 0.0
03/02:00pm 40.7 38.9 10.9 17 18.0 NW 11 22 6 12 1009.6 1008.7 0.0
03/01:30pm 40.3 38.8 10.6 17 17.8 NW 9 20 5 11 1010.1 1009.2 0.0
03/01:00pm 39.8 37.8 12.6 20 16.7 NW 15 24 8 13 1010.6 1009.7 0.0
03/12:30pm 39.0 36.8 13.4 22 15.9 N 17 24 9 13 1011.1 1010.2 0.0
03/12:00pm 39.7 38.7 14.7 23 15.8 NNE 13 28 7 15 1011.4 1010.5 0.0
03/11:30am 37.8 36.8 15.6 27 14.1 NNE 15 24 8 13 1011.7 1010.8 0.0
03/11:00am 37.2 36.0 13.9 25 14.5 N 13 22 7 12 1012.0 1011.1 0.0
03/10:30am 36.1 36.3 16.8 32 12.4 NNE 11 17 6 9 1012.1 1011.2 0.0
03/10:00am 35.6 35.9 17.8 35 11.6 N 13 19 7 10 1012.1 1011.2 0.0
03/09:30am 34.3 35.2 18.3 38 10.5 N 11 17 6 9 1012.0 1011.1 0.0
03/09:00am 32.5 32.8 18.7 44 9.0 N 15 20 8 11 1012.0 1011.1 1.4
03/08:30am 30.7 30.7 18.1 47 8.1 N 15 19 8 10 1011.8 1010.9 1.4
03/08:00am 29.1 29.3 18.5 52 6.8 N 15 19 8 10 1011.5 1010.6 1.4
03/07:30am 27.5 28.1 18.5 58 5.8 NE 13 17 7 9 1011.3 1010.4 1.4
03/07:00am 25.3 25.9 18.5 66 4.3 NE 13 19 7 10 1011.2 1010.3 1.4
03/06:30am 23.3 24.5 18.2 73 3.2 NE 9 13 5 7 1010.9 1010.0 1.4
03/06:00am 22.5 24.0 18.1 76 2.8 NE 7 13 4 7 1010.6 1009.7 1.4
03/05:30am 22.6 22.8 17.7 74 3.1 NNE 13 17 7 9 1010.4 1009.5 1.4
03/05:00am 23.2 22.9 17.4 70 3.6 N 15 19 8 10 1010.3 1009.4 1.4
03/04:30am 25.3 25.4 16.4 57 5.5 WSW 11 15 6 8 1009.4 1008.4 1.4
03/04:00am 24.4 24.9 17.4 65 4.4 W 11 17 6 9 1009.3 1008.3 1.4
03/03:30am 24.1 23.2 17.8 68 4.0 WSW 19 22 10 12 1009.8 1008.9 1.4
03/03:00am 23.9 23.4 17.9 69 3.8 WSW 17 22 9 12 1010.1 1009.2 1.4
03/02:30am 23.7 24.5 18.1 71 3.5 WNW 11 13 6 7 1010.9 1010.0 1.4
03/02:00am 24.3 25.3 17.8 67 4.1 W 9 13 5 7 1011.2 1010.3 1.4
03/01:30am 23.7 21.1 17.9 70 3.6 WSW 28 35 15 19 1010.7 1009.8 1.4
03/01:00am 24.1 18.7 17.8 68 4.0 W 43 56 23 30 1010.2 1009.3 1.4
03/12:30am 22.6 18.1 19.8 84 1.8 WSW 43 56 23 30 1011.6 1010.7 1.4
03/12:00am 22.8 17.1 19.4 81 2.2 WSW 48 63 26 34 1012.1 1011.2 1.2
 
Date/Time
EST
Temp
°C
App
Temp
°C
Dew
Point
°C
Rel
Hum
%
Delta-T
°C
Wind Press
QNH
hPa
Press
MSL
hPa
Rain since
9am
mm
Dir  Spd
km/h
Gust
km/h
Spd
kts
Gust
kts
02/11:47pm 23.3 20.2 18.8 76 2.9 WSW 33 67 18 36 1013.0 1012.1 1.0
02/11:30pm 23.4 21.7 18.9 76 2.9 WNW 26 37 14 20 1012.9 1012.0 1.0
02/11:00pm 23.7 20.9 19.4 77 2.8 N 33 44 18 24 1012.1 1011.2 1.0
02/10:30pm 23.6 20.7 19.3 77 2.8 N 33 43 18 23 1012.6 1011.7 0.8
02/10:00pm 23.7 18.8 19.4 77 2.8 NNE 44 56 24 30 1012.2 1011.3 0.6
02/09:30pm 23.3 19.2 19.9 81 2.2 NNE 41 56 22 30 1012.1 1011.2 0.6
02/09:00pm 23.3 20.0 20.1 82 2.1 NNE 37 52 20 28 1011.9 1011.0 0.6
02/08:42pm 23.9 21.3 19.6 77 2.8 NE 32 50 17 27 1012.1 1011.2 0.4
02/08:30pm 24.9 24.3 18.8 69 3.9 E 20 39 11 21 1013.7 1012.8 0.0
02/08:20pm 24.7 21.9 19.1 71 3.6 ESE 32 46 17 25 1013.8 1012.9 0.0
02/08:03pm 27.8 22.1 18.5 57 6.0 SE 46 74 25 40 1012.1 1011.2 0.0
02/08:00pm 28.0 22.2 18.4 56 6.2 ESE 46 59 25 32 1011.8 1010.9 0.0
02/07:57pm 28.4 22.2 18.2 54 6.5 ESE 48 69 26 37 1011.7 1010.8 0.0
02/07:30pm 32.6 30.9 17.2 39 9.9 E 22 52 12 28 1010.1 1009.2 0.0
02/07:00pm 33.6 33.5 16.9 37 10.7 NNW 13 19 7 10 1008.6 1007.6 0.0
02/06:30pm 35.7 33.9 16.9 32 12.1 NNW 22 28 12 15 1008.1 1007.1 0.0
02/06:00pm 37.5 36.7 17.0 30 13.3 N 17 24 9 13 1007.7 1006.7 0.0
02/05:30pm 38.2 37.9 16.5 28 14.0 NNW 13 19 7 10 1007.5 1006.5 0.0
02/05:00pm 35.6 35.1 17.8 35 11.6 NW 17 22 9 12 1007.0 1006.0 0.0
02/04:30pm 33.8 29.6 16.2 35 11.2 WNW 33 50 18 27 1007.2 1006.2 0.0
02/04:25pm 32.0 28.6 15.9 38 10.1 NW 28 50 15 27 1007.5 1006.5 0.0
02/04:00pm 37.5 34.8 14.7 25 14.3 NE 22 33 12 18 1006.9 1005.9 0.0
02/03:43pm 39.5 37.1 14.5 23 15.8 NE 20 43 11 23 1006.8 1005.8 0.0
02/03:30pm 41.0 41.8 13.6 20 17.1 NNW 2 6 1 3 1007.1 1006.1 0.0
02/03:00pm 41.0 39.4 12.8 19 17.5 WNW 13 20 7 11 1007.7 1006.7 0.0
02/02:30pm 39.0 37.7 14.7 23 15.3 W 15 35 8 19 1008.0 1007.0 0.0
02/02:00pm 40.2 39.2 15.7 23 15.8 NW 15 30 8 16 1008.5 1007.5 0.0
02/01:30pm 40.3 38.9 16.5 25 15.4 NNW 19 35 10 19 1009.0 1008.0 0.0
02/01:00pm 39.6 39.1 17.7 28 14.4 NNW 17 32 9 17 1009.5 1008.6 0.0
02/12:30pm 38.8 38.6 18.6 30 13.4 NW 17 30 9 16 1010.2 1009.3 0.0
02/12:00pm 37.7 36.6 18.7 33 12.6 NNW 22 33 12 18 1010.7 1009.8 0.0
02/11:30am 38.0 37.3 20.3 35 12.0 NNW 24 32 13 17 1011.1 1010.2 0.0
02/11:00am 36.8 35.2 20.1 37 11.3 NNW 28 39 15 21 1011.5 1010.6 0.0
02/10:30am 36.4 35.7 21.0 40 10.5 NNW 26 37 14 20 1011.7 1010.8 0.0
02/10:00am 34.8 34.3 20.7 43 9.5 NNW 24 37 13 20 1011.9 1011.0 0.0
02/09:30am 34.1 33.5 21.2 47 8.8 NNW 26 33 14 18 1012.0 1011.1 0.0
02/09:00am 33.3 32.2 21.8 51 7.9 NNW 30 41 16 22 1011.9 1011.0 0.0
02/08:30am 32.3 32.1 22.1 55 7.0 NNW 26 35 14 19 1012.1 1011.2 0.0

Other Formats:

Comma delimited format used in spreadsheet applications
http://www.bom.gov.au/fwo/IDQ60801/IDQ60801.94337.axf

JavaScript Object Notation format (JSON) in row-major order
http://www.bom.gov.au/fwo/IDQ60801/IDQ60801.94337.json